Terminal Aerodrome Forecast
Issued by NWS Cleveland, OH

Home | Current Version | Previous Version | Text Only | Print | Product List | Glossary On
Versions: 1 2 3 4 5 6 7 8 9 10 11 12 13 14 15 16 17 18 19 20 21 22 23
000
FTUS41 KCLE 232339
TAFMFD
TAF
KMFD 232339Z 2400/2424 01007KT 3SM -RA BR OVC003
      TEMPO 2401/2405 1 1/2SM -RA BR OVC002
     FM240500 34004KT 3/4SM -DZ BR OVC002
     FM241500 31006KT 2SM BR OVC006
     FM242000 27008KT 5SM BR OVC010=

USA.gov is the U.S. government's official web portal to all federal, state and local government web resources and services.